sensor_id;sensor_type;location;lat;lon;timestamp;pressure;altitude;pressure_sealevel;temperature;humidity
64876;BME280;51369;49.862;9.908;2023-09-08T00:00:30;98630.91;;;19.26;62.35
64876;BME280;51369;49.862;9.908;2023-09-08T00:02:55;98629.16;;;19.25;62.89
64876;BME280;51369;49.862;9.908;2023-09-08T00:05:21;98622.94;;;19.23;62.64
64876;BME280;51369;49.862;9.908;2023-09-08T00:07:46;98625.03;;;19.19;61.85
64876;BME280;51369;49.862;9.908;2023-09-08T00:10:11;98624.25;;;19.17;63.04
64876;BME280;51369;49.862;9.908;2023-09-08T00:12:37;98622.63;;;19.14;63.45
64876;BME280;51369;49.862;9.908;2023-09-08T00:15:03;98622.72;;;19.13;63.48
64876;BME280;51369;49.862;9.908;2023-09-08T00:17:29;98617.38;;;19.11;63.67
64876;BME280;51369;49.862;9.908;2023-09-08T00:19:56;98626.69;;;19.09;63.34
64876;BME280;51369;49.862;9.908;2023-09-08T00:22:22;98624.31;;;19.04;63.51
64876;BME280;51369;49.862;9.908;2023-09-08T00:24:47;98612.84;;;18.99;64.12
64876;BME280;51369;49.862;9.908;2023-09-08T00:27:14;98622.38;;;18.94;63.89
64876;BME280;51369;49.862;9.908;2023-09-08T00:29:40;98615.38;;;18.90;64.03
64876;BME280;51369;49.862;9.908;2023-09-08T00:32:06;98623.91;;;18.85;63.36
64876;BME280;51369;49.862;9.908;2023-09-08T00:34:31;98619.53;;;18.82;63.17
64876;BME280;51369;49.862;9.908;2023-09-08T00:36:57;98618.13;;;18.77;63.68
64876;BME280;51369;49.862;9.908;2023-09-08T00:39:22;98618.56;;;18.71;63.88
64876;BME280;51369;49.862;9.908;2023-09-08T00:41:48;98615.28;;;18.66;64.19
64876;BME280;51369;49.862;9.908;2023-09-08T00:44:14;98623.88;;;18.60;63.77
64876;BME280;51369;49.862;9.908;2023-09-08T00:46:40;98620.50;;;18.56;64.41
64876;BME280;51369;49.862;9.908;2023-09-08T00:49:06;98624.53;;;18.50;64.40
64876;BME280;51369;49.862;9.908;2023-09-08T00:51:31;98613.16;;;18.44;63.88
64876;BME280;51369;49.862;9.908;2023-09-08T00:53:57;98622.47;;;18.41;63.56
64876;BME280;51369;49.862;9.908;2023-09-08T00:56:23;98620.03;;;18.37;64.17
64876;BME280;51369;49.862;9.908;2023-09-08T00:58:49;98620.25;;;18.34;64.43
64876;BME280;51369;49.862;9.908;2023-09-08T01:01:14;98616.09;;;18.28;65.03
64876;BME280;51369;49.862;9.908;2023-09-08T01:03:40;98616.41;;;18.24;64.17
64876;BME280;51369;49.862;9.908;2023-09-08T01:06:06;98621.22;;;18.20;64.91
64876;BME280;51369;49.862;9.908;2023-09-08T01:08:31;98624.19;;;18.17;65.18
64876;BME280;51369;49.862;9.908;2023-09-08T01:10:57;98624.38;;;18.14;65.53
64876;BME280;51369;49.862;9.908;2023-09-08T01:13:22;98611.91;;;18.10;65.86
64876;BME280;51369;49.862;9.908;2023-09-08T01:15:49;98618.47;;;18.07;66.22
64876;BME280;51369;49.862;9.908;2023-09-08T01:18:14;98615.19;;;18.02;65.59
64876;BME280;51369;49.862;9.908;2023-09-08T01:20:55;98614.63;;;17.97;65.49
64876;BME280;51369;49.862;9.908;2023-09-08T01:26:20;98617.00;;;17.89;66.18
64876;BME280;51369;49.862;9.908;2023-09-08T01:28:49;98621.91;;;17.84;65.80
64876;BME280;51369;49.862;9.908;2023-09-08T01:31:16;98614.81;;;17.81;66.01
64876;BME280;51369;49.862;9.908;2023-09-08T01:33:42;98621.34;;;17.79;66.20
64876;BME280;51369;49.862;9.908;2023-09-08T01:36:08;98626.72;;;17.80;66.73
64876;BME280;51369;49.862;9.908;2023-09-08T01:38:34;98619.59;;;17.78;67.41
64876;BME280;51369;49.862;9.908;2023-09-08T01:40:59;98618.63;;;17.79;67.01
64876;BME280;51369;49.862;9.908;2023-09-08T01:43:27;98613.25;;;17.77;66.67
64876;BME280;51369;49.862;9.908;2023-09-08T01:45:52;98609.75;;;17.75;66.54
64876;BME280;51369;49.862;9.908;2023-09-08T01:48:17;98610.72;;;17.74;66.98
64876;BME280;51369;49.862;9.908;2023-09-08T01:50:43;98611.72;;;17.73;66.60
64876;BME280;51369;49.862;9.908;2023-09-08T01:53:08;98611.91;;;17.70;66.26
64876;BME280;51369;49.862;9.908;2023-09-08T01:55:33;98612.22;;;17.66;66.76
64876;BME280;51369;49.862;9.908;2023-09-08T01:57:59;98606.19;;;17.61;66.28
64876;BME280;51369;49.862;9.908;2023-09-08T02:00:24;98613.69;;;17.57;66.24
64876;BME280;51369;49.862;9.908;2023-09-08T02:02:50;98609.31;;;17.54;66.35
64876;BME280;51369;49.862;9.908;2023-09-08T02:05:15;98611.47;;;17.49;66.62
64876;BME280;51369;49.862;9.908;2023-09-08T02:07:41;98606.34;;;17.45;66.80
64876;BME280;51369;49.862;9.908;2023-09-08T02:10:06;98613.75;;;17.43;66.51
64876;BME280;51369;49.862;9.908;2023-09-08T02:12:32;98602.16;;;17.39;66.86
64876;BME280;51369;49.862;9.908;2023-09-08T02:14:57;98605.97;;;17.37;67.56
64876;BME280;51369;49.862;9.908;2023-09-08T02:17:22;98609.78;;;17.34;67.93
64876;BME280;51369;49.862;9.908;2023-09-08T02:19:48;98610.00;;;17.31;67.24
64876;BME280;51369;49.862;9.908;2023-09-08T02:22:13;98609.34;;;17.28;67.49
64876;BME280;51369;49.862;9.908;2023-09-08T02:24:39;98611.50;;;17.22;67.05
64876;BME280;51369;49.862;9.908;2023-09-08T02:27:04;98607.22;;;17.18;66.69
64876;BME280;51369;49.862;9.908;2023-09-08T02:29:31;98602.84;;;17.16;67.40
64876;BME280;51369;49.862;9.908;2023-09-08T02:31:56;98612.97;;;17.14;67.62
64876;BME280;51369;49.862;9.908;2023-09-08T02:34:21;98605.09;;;17.09;67.99
64876;BME280;51369;49.862;9.908;2023-09-08T02:36:47;98607.91;;;17.08;68.38
64876;BME280;51369;49.862;9.908;2023-09-08T02:39:14;98611.72;;;17.05;67.90
64876;BME280;51369;49.862;9.908;2023-09-08T02:41:39;98610.06;;;17.03;67.88
64876;BME280;51369;49.862;9.908;2023-09-08T02:44:05;98613.00;;;17.00;67.72
64876;BME280;51369;49.862;9.908;2023-09-08T02:46:31;98606.88;;;16.96;67.82
64876;BME280;51369;49.862;9.908;2023-09-08T02:48:56;98615.16;;;16.95;67.50
64876;BME280;51369;49.862;9.908;2023-09-08T02:51:22;98605.41;;;16.90;68.21
64876;BME280;51369;49.862;9.908;2023-09-08T02:53:47;98610.19;;;16.87;68.30
64876;BME280;51369;49.862;9.908;2023-09-08T02:56:12;98603.09;;;16.84;67.68
64876;BME280;51369;49.862;9.908;2023-09-08T02:58:38;98599.78;;;16.79;67.72
64876;BME280;51369;49.862;9.908;2023-09-08T03:01:16;98599.00;;;16.77;67.90
64876;BME280;51369;49.862;9.908;2023-09-08T03:03:45;98610.78;;;16.78;67.75
64876;BME280;51369;49.862;9.908;2023-09-08T03:06:11;98617.31;;;16.75;68.24
64876;BME280;51369;49.862;9.908;2023-09-08T03:08:38;98611.06;;;16.73;68.07
64876;BME280;51369;49.862;9.908;2023-09-08T03:11:04;98606.78;;;16.69;67.89
64876;BME280;51369;49.862;9.908;2023-09-08T03:13:34;98605.22;;;16.65;68.03
64876;BME280;51369;49.862;9.908;2023-09-08T03:16:06;98606.38;;;16.61;68.12
64876;BME280;51369;49.862;9.908;2023-09-08T03:18:36;98609.19;;;16.59;68.61
64876;BME280;51369;49.862;9.908;2023-09-08T03:21:06;98601.09;;;16.58;68.97
64876;BME280;51369;49.862;9.908;2023-09-08T03:23:40;98597.50;;;16.57;69.16
64876;BME280;51369;49.862;9.908;2023-09-08T03:26:07;98605.69;;;16.57;69.07
64876;BME280;51369;49.862;9.908;2023-09-08T03:28:34;98594.00;;;16.55;69.10
64876;BME280;51369;49.862;9.908;2023-09-08T03:31:03;98598.69;;;16.53;68.91
64876;BME280;51369;49.862;9.908;2023-09-08T03:33:31;98603.16;;;16.54;69.29
64876;BME280;51369;49.862;9.908;2023-09-08T03:35:58;98610.47;;;16.54;69.15
64876;BME280;51369;49.862;9.908;2023-09-08T03:38:23;98606.84;;;16.53;69.68
64876;BME280;51369;49.862;9.908;2023-09-08T03:40:49;98607.91;;;16.51;69.24
64876;BME280;51369;49.862;9.908;2023-09-08T03:43:15;98616.09;;;16.51;68.79
64876;BME280;51369;49.862;9.908;2023-09-08T03:45:40;98615.31;;;16.49;68.93
64876;BME280;51369;49.862;9.908;2023-09-08T03:48:07;98607.44;;;16.44;69.80
64876;BME280;51369;49.862;9.908;2023-09-08T03:50:33;98603.25;;;16.39;69.74
64876;BME280;51369;49.862;9.908;2023-09-08T03:52:58;98604.41;;;16.35;70.41
64876;BME280;51369;49.862;9.908;2023-09-08T03:55:24;98610.91;;;16.32;70.22
64876;BME280;51369;49.862;9.908;2023-09-08T03:57:49;98608.28;;;16.31;70.49
64876;BME280;51369;49.862;9.908;2023-09-08T04:00:15;98608.28;;;16.31;70.61
64876;BME280;51369;49.862;9.908;2023-09-08T04:02:47;98611.22;;;16.27;70.69
64876;BME280;51369;49.862;9.908;2023-09-08T04:05:12;98611.91;;;16.31;70.37
64876;BME280;51369;49.862;9.908;2023-09-08T04:07:37;98617.22;;;16.18;70.91
64876;BME280;51369;49.862;9.908;2023-09-08T04:10:03;98613.94;;;16.27;70.19
64876;BME280;51369;49.862;9.908;2023-09-08T04:12:28;98621.13;;;16.28;70.36
64876;BME280;51369;49.862;9.908;2023-09-08T04:14:54;98609.34;;;16.28;70.30
64876;BME280;51369;49.862;9.908;2023-09-08T04:17:19;98615.88;;;16.25;70.73
64876;BME280;51369;49.862;9.908;2023-09-08T04:19:45;98611.50;;;16.23;70.67
64876;BME280;51369;49.862;9.908;2023-09-08T04:22:10;98607.00;;;16.22;70.34
64876;BME280;51369;49.862;9.908;2023-09-08T04:24:36;98604.38;;;16.20;70.66
64876;BME280;51369;49.862;9.908;2023-09-08T04:27:02;98609.84;;;16.20;70.53
64876;BME280;51369;49.862;9.908;2023-09-08T04:29:28;98608.97;;;16.20;70.08
64876;BME280;51369;49.862;9.908;2023-09-08T04:31:54;98609.06;;;16.18;70.13
64876;BME280;51369;49.862;9.908;2023-09-08T04:34:19;98604.66;;;16.16;70.19
64876;BME280;51369;49.862;9.908;2023-09-08T04:36:44;98605.72;;;16.13;69.98
64876;BME280;51369;49.862;9.908;2023-09-08T04:39:10;98606.88;;;16.09;69.94
64876;BME280;51369;49.862;9.908;2023-09-08T04:41:37;98607.19;;;16.05;70.57
64876;BME280;51369;49.862;9.908;2023-09-08T04:44:02;98610.19;;;16.00;70.86
64876;BME280;51369;49.862;9.908;2023-09-08T04:46:28;98602.97;;;15.99;71.21
64876;BME280;51369;49.862;9.908;2023-09-08T04:48:54;98613.09;;;15.97;71.07
64876;BME280;51369;49.862;9.908;2023-09-08T04:51:21;98610.47;;;15.95;71.18
64876;BME280;51369;49.862;9.908;2023-09-08T04:53:46;98611.44;;;15.94;71.42
64876;BME280;51369;49.862;9.908;2023-09-08T04:56:13;98620.56;;;15.93;70.97
64876;BME280;51369;49.862;9.908;2023-09-08T04:58:39;98616.00;;;15.94;71.37
64876;BME280;51369;49.862;9.908;2023-09-08T05:01:04;98611.53;;;15.93;71.32
64876;BME280;51369;49.862;9.908;2023-09-08T05:03:31;98620.66;;;15.92;71.42
64876;BME280;51369;49.862;9.908;2023-09-08T05:05:56;98613.47;;;15.91;72.12
64876;BME280;51369;49.862;9.908;2023-09-08T05:08:22;98616.19;;;15.91;71.68
64876;BME280;51369;49.862;9.908;2023-09-08T05:10:49;98614.44;;;15.90;71.29
64876;BME280;51369;49.862;9.908;2023-09-08T05:13:16;98616.28;;;15.89;70.95
64876;BME280;51369;49.862;9.908;2023-09-08T05:15:42;98624.44;;;15.89;71.37
64876;BME280;51369;49.862;9.908;2023-09-08T05:18:09;98627.25;;;15.88;71.50
64876;BME280;51369;49.862;9.908;2023-09-08T05:20:35;98623.75;;;15.86;71.36
64876;BME280;51369;49.862;9.908;2023-09-08T05:23:00;98630.06;;;15.86;71.77
64876;BME280;51369;49.862;9.908;2023-09-08T05:25:25;98629.97;;;15.88;71.55
64876;BME280;51369;49.862;9.908;2023-09-08T05:27:51;98638.94;;;15.90;71.50
64876;BME280;51369;49.862;9.908;2023-09-08T05:30:16;98642.63;;;15.89;71.33
64876;BME280;51369;49.862;9.908;2023-09-08T05:32:42;98636.31;;;15.88;71.85
64876;BME280;51369;49.862;9.908;2023-09-08T05:35:08;98641.66;;;15.90;71.52
64876;BME280;51369;49.862;9.908;2023-09-08T05:37:33;98637.19;;;15.89;71.46
64876;BME280;51369;49.862;9.908;2023-09-08T05:39:58;98635.25;;;15.91;72.31
64876;BME280;51369;49.862;9.908;2023-09-08T05:42:24;98647.72;;;15.95;72.66
64876;BME280;51369;49.862;9.908;2023-09-08T05:44:49;98648.41;;;15.99;72.81
64876;BME280;51369;49.862;9.908;2023-09-08T05:47:15;98650.75;;;16.05;72.86
64876;BME280;51369;49.862;9.908;2023-09-08T05:49:40;98656.72;;;16.11;73.25
64876;BME280;51369;49.862;9.908;2023-09-08T05:52:06;98657.13;;;16.19;72.86
64876;BME280;51369;49.862;9.908;2023-09-08T05:54:32;98655.00;;;16.24;72.33
64876;BME280;51369;49.862;9.908;2023-09-08T05:56:58;98660.75;;;16.34;72.44
64876;BME280;51369;49.862;9.908;2023-09-08T05:59:24;98659.31;;;16.43;72.06
64876;BME280;51369;49.862;9.908;2023-09-08T06:01:50;98657.75;;;16.53;72.42
64876;BME280;51369;49.862;9.908;2023-09-08T06:04:16;98658.94;;;16.63;72.28
64876;BME280;51369;49.862;9.908;2023-09-08T06:06:42;98662.09;;;16.71;72.26
64876;BME280;51369;49.862;9.908;2023-09-08T06:09:07;98658.69;;;16.82;72.38
64876;BME280;51369;49.862;9.908;2023-09-08T06:11:34;98651.47;;;16.95;72.05
64876;BME280;51369;49.862;9.908;2023-09-08T06:14:00;98654.28;;;17.08;72.48
64876;BME280;51369;49.862;9.908;2023-09-08T06:16:27;98653.59;;;17.18;72.35
64876;BME280;51369;49.862;9.908;2023-09-08T06:18:52;98653.56;;;17.33;71.97
64876;BME280;51369;49.862;9.908;2023-09-08T06:21:19;98648.94;;;17.47;71.81
64876;BME280;51369;49.862;9.908;2023-09-08T06:23:44;98648.00;;;17.61;71.70
64876;BME280;51369;49.862;9.908;2023-09-08T06:26:12;98648.97;;;17.74;71.22
64876;BME280;51369;49.862;9.908;2023-09-08T06:28:37;98659.06;;;17.86;70.70
64876;BME280;51369;49.862;9.908;2023-09-08T06:31:04;98661.06;;;17.97;69.97
64876;BME280;51369;49.862;9.908;2023-09-08T06:33:30;98654.09;;;18.06;70.39
64876;BME280;51369;49.862;9.908;2023-09-08T06:35:55;98653.56;;;18.13;69.87
64876;BME280;51369;49.862;9.908;2023-09-08T06:38:21;98654.91;;;18.20;69.60
64876;BME280;51369;49.862;9.908;2023-09-08T06:40:46;98658.84;;;18.29;70.00
64876;BME280;51369;49.862;9.908;2023-09-08T06:43:13;98657.56;;;18.35;69.26
64876;BME280;51369;49.862;9.908;2023-09-08T06:45:51;98659.75;;;18.42;69.22
64876;BME280;51369;49.862;9.908;2023-09-08T06:48:17;98662.94;;;18.49;69.28
64876;BME280;51369;49.862;9.908;2023-09-08T06:50:42;98657.25;;;18.52;69.83
64876;BME280;51369;49.862;9.908;2023-09-08T06:53:08;98663.25;;;18.57;68.99
64876;BME280;51369;49.862;9.908;2023-09-08T06:55:34;98662.66;;;18.66;68.86
64876;BME280;51369;49.862;9.908;2023-09-08T06:58:00;98663.84;;;18.75;68.79
64876;BME280;51369;49.862;9.908;2023-09-08T07:00:25;98663.84;;;18.88;69.04
64876;BME280;51369;49.862;9.908;2023-09-08T07:02:52;98664.81;;;18.99;69.02
64876;BME280;51369;49.862;9.908;2023-09-08T07:05:18;98662.16;;;19.10;69.42
64876;BME280;51369;49.862;9.908;2023-09-08T07:07:44;98661.38;;;19.21;69.63
64876;BME280;51369;49.862;9.908;2023-09-08T07:10:09;98663.31;;;19.32;68.84
64876;BME280;51369;49.862;9.908;2023-09-08T07:12:35;98661.53;;;19.43;68.83
64876;BME280;51369;49.862;9.908;2023-09-08T07:15:01;98672.59;;;19.55;68.86
64876;BME280;51369;49.862;9.908;2023-09-08T07:17:26;98659.97;;;19.65;68.79
64876;BME280;51369;49.862;9.908;2023-09-08T07:19:52;98663.53;;;19.78;68.11
64876;BME280;51369;49.862;9.908;2023-09-08T07:22:19;98661.72;;;19.90;68.30
64876;BME280;51369;49.862;9.908;2023-09-08T07:24:44;98655.31;;;20.02;67.85
64876;BME280;51369;49.862;9.908;2023-09-08T07:27:10;98660.72;;;20.14;68.00
64876;BME280;51369;49.862;9.908;2023-09-08T07:29:39;98662.63;;;20.25;67.89
64876;BME280;51369;49.862;9.908;2023-09-08T07:32:05;98653.69;;;20.34;67.82
64876;BME280;51369;49.862;9.908;2023-09-08T07:34:30;98662.13;;;20.44;67.84
64876;BME280;51369;49.862;9.908;2023-09-08T07:36:56;98657.13;;;20.49;67.85
64876;BME280;51369;49.862;9.908;2023-09-08T07:39:21;98661.28;;;20.55;67.75
64876;BME280;51369;49.862;9.908;2023-09-08T07:41:46;98662.41;;;20.63;67.45
64876;BME280;51369;49.862;9.908;2023-09-08T07:44:12;98656.44;;;20.69;67.36
64876;BME280;51369;49.862;9.908;2023-09-08T07:46:38;98661.19;;;20.78;67.58
64876;BME280;51369;49.862;9.908;2023-09-08T07:49:03;98661.28;;;20.88;67.34
64876;BME280;51369;49.862;9.908;2023-09-08T07:51:29;98661.44;;;20.98;66.96
64876;BME280;51369;49.862;9.908;2023-09-08T07:53:56;98656.06;;;21.07;66.76
64876;BME280;51369;49.862;9.908;2023-09-08T07:56:21;98664.31;;;21.19;66.52
64876;BME280;51369;49.862;9.908;2023-09-08T07:58:47;98670.84;;;21.29;66.23
64876;BME280;51369;49.862;9.908;2023-09-08T08:01:13;98656.84;;;21.43;65.36
64876;BME280;51369;49.862;9.908;2023-09-08T08:03:38;98650.22;;;21.57;64.19
64876;BME280;51369;49.862;9.908;2023-09-08T08:06:04;98649.81;;;21.72;63.92
64876;BME280;51369;49.862;9.908;2023-09-08T08:08:30;98653.38;;;21.84;63.73
64876;BME280;51369;49.862;9.908;2023-09-08T08:10:56;98656.97;;;21.96;60.84
64876;BME280;51369;49.862;9.908;2023-09-08T08:13:21;98642.84;;;22.12;60.41
64876;BME280;51369;49.862;9.908;2023-09-08T08:15:46;98649.75;;;22.27;59.64
64876;BME280;51369;49.862;9.908;2023-09-08T08:18:12;98651.47;;;22.39;59.28
64876;BME280;51369;49.862;9.908;2023-09-08T08:20:38;98652.13;;;22.52;58.64
64876;BME280;51369;49.862;9.908;2023-09-08T08:23:05;98654.38;;;22.68;57.92
64876;BME280;51369;49.862;9.908;2023-09-08T08:25:30;98656.97;;;22.81;57.93
64876;BME280;51369;49.862;9.908;2023-09-08T08:27:57;98652.38;;;22.91;57.58
64876;BME280;51369;49.862;9.908;2023-09-08T08:30:24;98649.56;;;23.02;57.78
64876;BME280;51369;49.862;9.908;2023-09-08T08:32:50;98650.47;;;23.12;57.80
64876;BME280;51369;49.862;9.908;2023-09-08T08:35:17;98655.16;;;23.21;57.95
64876;BME280;51369;49.862;9.908;2023-09-08T08:37:42;98649.84;;;23.29;57.92
64876;BME280;51369;49.862;9.908;2023-09-08T08:40:09;98653.78;;;23.36;56.61
64876;BME280;51369;49.862;9.908;2023-09-08T08:42:39;98651.19;;;23.45;56.56
64876;BME280;51369;49.862;9.908;2023-09-08T08:45:05;98643.00;;;23.54;56.24
64876;BME280;51369;49.862;9.908;2023-09-08T08:47:31;98648.69;;;23.62;56.00
64876;BME280;51369;49.862;9.908;2023-09-08T08:49:58;98646.69;;;23.74;55.46
64876;BME280;51369;49.862;9.908;2023-09-08T08:52:27;98651.63;;;23.80;55.29
64876;BME280;51369;49.862;9.908;2023-09-08T08:54:53;98643.50;;;23.88;54.88
64876;BME280;51369;49.862;9.908;2023-09-08T08:57:19;98649.31;;;23.95;54.66
64876;BME280;51369;49.862;9.908;2023-09-08T08:59:45;98645.84;;;24.02;55.14
64876;BME280;51369;49.862;9.908;2023-09-08T09:02:13;98645.28;;;24.09;55.76
64876;BME280;51369;49.862;9.908;2023-09-08T09:04:40;98639.91;;;24.17;55.44
64876;BME280;51369;49.862;9.908;2023-09-08T09:07:07;98642.97;;;24.23;55.31
64876;BME280;51369;49.862;9.908;2023-09-08T09:09:32;98636.72;;;24.31;54.91
64876;BME280;51369;49.862;9.908;2023-09-08T09:11:58;98632.06;;;24.41;54.29
64876;BME280;51369;49.862;9.908;2023-09-08T09:14:24;98629.31;;;24.51;54.68
64876;BME280;51369;49.862;9.908;2023-09-08T09:16:50;98631.03;;;24.61;54.22
64876;BME280;51369;49.862;9.908;2023-09-08T09:19:21;98632.19;;;24.69;53.68
64876;BME280;51369;49.862;9.908;2023-09-08T09:21:51;98633.19;;;24.77;53.53
64876;BME280;51369;49.862;9.908;2023-09-08T09:24:33;98630.69;;;24.84;53.64
64876;BME280;51369;49.862;9.908;2023-09-08T09:27:02;98631.28;;;24.97;53.08
64876;BME280;51369;49.862;9.908;2023-09-08T09:29:29;98627.31;;;25.09;52.54
64876;BME280;51369;49.862;9.908;2023-09-08T09:31:58;98630.75;;;25.21;51.28
64876;BME280;51369;49.862;9.908;2023-09-08T09:34:27;98627.66;;;25.34;51.84
64876;BME280;51369;49.862;9.908;2023-09-08T09:36:53;98612.75;;;25.44;50.47
64876;BME280;51369;49.862;9.908;2023-09-08T09:39:23;98622.75;;;25.55;49.75
64876;BME280;51369;49.862;9.908;2023-09-08T09:41:53;98626.22;;;25.67;49.42
64876;BME280;51369;49.862;9.908;2023-09-08T09:44:18;98628.19;;;25.74;49.06
64876;BME280;51369;49.862;9.908;2023-09-08T09:46:45;98620.31;;;25.79;49.41
64876;BME280;51369;49.862;9.908;2023-09-08T09:49:16;98611.47;;;25.93;48.67
64876;BME280;51369;49.862;9.908;2023-09-08T09:51:49;98613.03;;;26.14;48.02
64876;BME280;51369;49.862;9.908;2023-09-08T09:54:16;98613.78;;;26.34;48.67
64876;BME280;51369;49.862;9.908;2023-09-08T09:56:43;98624.34;;;26.56;48.72
64876;BME280;51369;49.862;9.908;2023-09-08T09:59:10;98629.56;;;26.77;47.96
64876;BME280;51369;49.862;9.908;2023-09-08T10:01:37;98625.00;;;26.94;47.58
64876;BME280;51369;49.862;9.908;2023-09-08T10:04:03;98614.91;;;27.10;46.53
64876;BME280;51369;49.862;9.908;2023-09-08T10:06:34;98619.69;;;27.26;45.36
64876;BME280;51369;49.862;9.908;2023-09-08T10:09:00;98617.88;;;27.43;45.80
64876;BME280;51369;49.862;9.908;2023-09-08T10:11:52;98602.19;;;27.60;45.42
64876;BME280;51369;49.862;9.908;2023-09-08T10:14:21;98610.22;;;27.79;45.00
64876;BME280;51369;49.862;9.908;2023-09-08T10:16:49;98611.63;;;27.91;44.83
64876;BME280;51369;49.862;9.908;2023-09-08T10:19:17;98605.94;;;28.09;45.05
64876;BME280;51369;49.862;9.908;2023-09-08T10:21:48;98606.00;;;28.25;44.88
64876;BME280;51369;49.862;9.908;2023-09-08T10:24:18;98608.09;;;28.47;44.21
64876;BME280;51369;49.862;9.908;2023-09-08T10:26:56;98602.56;;;28.72;43.67
64876;BME280;51369;49.862;9.908;2023-09-08T10:29:24;98603.59;;;28.95;43.29
64876;BME280;51369;49.862;9.908;2023-09-08T10:31:50;98596.44;;;29.17;43.15
64876;BME280;51369;49.862;9.908;2023-09-08T10:34:17;98593.41;;;29.35;42.96
64876;BME280;51369;49.862;9.908;2023-09-08T10:36:43;98590.22;;;29.54;42.50
64876;BME280;51369;49.862;9.908;2023-09-08T10:39:28;98598.13;;;29.73;41.69
64876;BME280;51369;49.862;9.908;2023-09-08T10:47:34;98593.72;;;30.18;40.53
64876;BME280;51369;49.862;9.908;2023-09-08T10:50:05;98596.75;;;30.31;41.38
64876;BME280;51369;49.862;9.908;2023-09-08T10:52:30;98600.72;;;30.37;41.55
64876;BME280;51369;49.862;9.908;2023-09-08T10:54:58;98587.97;;;30.42;40.95
64876;BME280;51369;49.862;9.908;2023-09-08T10:57:25;98591.38;;;30.53;40.79
64876;BME280;51369;49.862;9.908;2023-09-08T11:02:37;98582.25;;;30.82;41.18
64876;BME280;51369;49.862;9.908;2023-09-08T11:05:06;98577.38;;;30.98;40.91
64876;BME280;51369;49.862;9.908;2023-09-08T11:07:32;98577.78;;;31.10;40.12
64876;BME280;51369;49.862;9.908;2023-09-08T11:09:59;98576.25;;;31.22;39.61
64876;BME280;51369;49.862;9.908;2023-09-08T11:12:28;98576.34;;;31.29;39.16
64876;BME280;51369;49.862;9.908;2023-09-08T11:14:54;98574.03;;;31.32;39.39
64876;BME280;51369;49.862;9.908;2023-09-08T11:17:20;98566.81;;;31.38;39.53
64876;BME280;51369;49.862;9.908;2023-09-08T11:19:49;98574.50;;;31.51;39.62
64876;BME280;51369;49.862;9.908;2023-09-08T11:22:16;98569.78;;;31.66;39.95
64876;BME280;51369;49.862;9.908;2023-09-08T11:24:42;98569.31;;;31.77;37.59
64876;BME280;51369;49.862;9.908;2023-09-08T11:27:08;98569.00;;;31.87;37.20
64876;BME280;51369;49.862;9.908;2023-09-08T11:29:34;98561.16;;;31.97;38.69
64876;BME280;51369;49.862;9.908;2023-09-08T11:32:00;98568.38;;;32.06;38.99
64876;BME280;51369;49.862;9.908;2023-09-08T11:34:25;98564.72;;;32.06;38.06
64876;BME280;51369;49.862;9.908;2023-09-08T11:36:51;98572.50;;;32.10;37.79
64876;BME280;51369;49.862;9.908;2023-09-08T11:39:18;98566.97;;;32.17;37.89
64876;BME280;51369;49.862;9.908;2023-09-08T11:41:43;98567.75;;;32.25;37.93
64876;BME280;51369;49.862;9.908;2023-09-08T11:44:09;98565.50;;;32.35;37.09
64876;BME280;51369;49.862;9.908;2023-09-08T11:46:34;98555.50;;;32.48;38.16
64876;BME280;51369;49.862;9.908;2023-09-08T11:49:00;98557.56;;;32.60;36.97
64876;BME280;51369;49.862;9.908;2023-09-08T11:51:26;98562.16;;;32.68;37.10
64876;BME280;51369;49.862;9.908;2023-09-08T11:53:52;98556.44;;;32.76;37.16
64876;BME280;51369;49.862;9.908;2023-09-08T11:56:18;98558.63;;;32.81;35.94
64876;BME280;51369;49.862;9.908;2023-09-08T11:58:44;98553.34;;;32.92;38.13
64876;BME280;51369;49.862;9.908;2023-09-08T12:01:10;98550.56;;;32.99;35.73
64876;BME280;51369;49.862;9.908;2023-09-08T12:03:51;98545.44;;;33.03;35.54
64876;BME280;51369;49.862;9.908;2023-09-08T12:06:16;98546.19;;;33.18;35.72
64876;BME280;51369;49.862;9.908;2023-09-08T12:08:41;98543.88;;;33.28;36.70
64876;BME280;51369;49.862;9.908;2023-09-08T12:11:07;98539.63;;;33.32;35.66
64876;BME280;51369;49.862;9.908;2023-09-08T12:13:34;98532.28;;;33.31;35.43
64876;BME280;51369;49.862;9.908;2023-09-08T12:15:59;98535.09;;;33.31;34.34
64876;BME280;51369;49.862;9.908;2023-09-08T12:18:38;98526.69;;;33.31;34.57
64876;BME280;51369;49.862;9.908;2023-09-08T12:21:04;98533.19;;;33.38;34.94
64876;BME280;51369;49.862;9.908;2023-09-08T12:23:32;98522.88;;;33.39;34.37
64876;BME280;51369;49.862;9.908;2023-09-08T12:25:57;98521.19;;;33.44;35.24
64876;BME280;51369;49.862;9.908;2023-09-08T12:28:30;98528.50;;;33.45;33.64
64876;BME280;51369;49.862;9.908;2023-09-08T12:30:55;98527.66;;;33.51;33.02
64876;BME280;51369;49.862;9.908;2023-09-08T12:33:21;98526.84;;;33.57;33.59
64876;BME280;51369;49.862;9.908;2023-09-08T12:35:47;98529.25;;;33.67;33.67
64876;BME280;51369;49.862;9.908;2023-09-08T12:38:18;98520.25;;;33.78;33.71
64876;BME280;51369;49.862;9.908;2023-09-08T12:40:43;98528.03;;;33.83;33.16
64876;BME280;51369;49.862;9.908;2023-09-08T12:43:08;98524.38;;;33.82;32.70
64876;BME280;51369;49.862;9.908;2023-09-08T12:45:34;98514.69;;;33.85;32.86
64876;BME280;51369;49.862;9.908;2023-09-08T12:48:00;98511.06;;;33.91;33.46
64876;BME280;51369;49.862;9.908;2023-09-08T12:50:29;98511.31;;;34.03;32.24
64876;BME280;51369;49.862;9.908;2023-09-08T12:52:55;98508.94;;;34.06;31.07
64876;BME280;51369;49.862;9.908;2023-09-08T12:55:21;98515.81;;;34.04;32.12
64876;BME280;51369;49.862;9.908;2023-09-08T12:57:47;98513.22;;;34.02;31.40
64876;BME280;51369;49.862;9.908;2023-09-08T13:00:13;98501.81;;;33.97;31.80
64876;BME280;51369;49.862;9.908;2023-09-08T13:02:40;98504.59;;;33.97;31.50
64876;BME280;51369;49.862;9.908;2023-09-08T13:05:05;98499.22;;;33.95;31.41
64876;BME280;51369;49.862;9.908;2023-09-08T13:07:30;98503.31;;;34.00;31.68